sensor_id;sensor_type;location;lat;lon;timestamp;temperature;humidity
17215;DHT22;8723;51.502;6.918;2023-06-26T00:01:35;22.30;1.00
17215;DHT22;8723;51.502;6.918;2023-06-26T00:04:02;22.30;1.00
17215;DHT22;8723;51.502;6.918;2023-06-26T00:06:29;22.30;1.00
17215;DHT22;8723;51.502;6.918;2023-06-26T00:08:56;22.30;1.00
17215;DHT22;8723;51.502;6.918;2023-06-26T00:11:24;22.30;1.00
17215;DHT22;8723;51.502;6.918;2023-06-26T00:13:52;22.30;1.00
17215;DHT22;8723;51.502;6.918;2023-06-26T00:16:21;22.20;1.00
17215;DHT22;8723;51.502;6.918;2023-06-26T00:18:47;22.30;1.00
17215;DHT22;8723;51.502;6.918;2023-06-26T00:21:14;22.30;1.00
17215;DHT22;8723;51.502;6.918;2023-06-26T00:23:41;22.30;1.00
17215;DHT22;8723;51.502;6.918;2023-06-26T00:26:08;22.30;1.00
17215;DHT22;8723;51.502;6.918;2023-06-26T00:28:35;22.30;1.00
17215;DHT22;8723;51.502;6.918;2023-06-26T00:31:02;22.20;1.00
17215;DHT22;8723;51.502;6.918;2023-06-26T00:33:31;22.20;1.00
17215;DHT22;8723;51.502;6.918;2023-06-26T00:35:58;22.10;1.00
17215;DHT22;8723;51.502;6.918;2023-06-26T00:38:25;22.10;1.00
17215;DHT22;8723;51.502;6.918;2023-06-26T00:40:52;22.10;1.00
17215;DHT22;8723;51.502;6.918;2023-06-26T00:43:20;22.00;1.00
17215;DHT22;8723;51.502;6.918;2023-06-26T00:45:47;22.00;1.00
17215;DHT22;8723;51.502;6.918;2023-06-26T00:48:14;22.00;1.00
17215;DHT22;8723;51.502;6.918;2023-06-26T00:50:42;22.00;1.00
17215;DHT22;8723;51.502;6.918;2023-06-26T00:53:09;21.90;1.00
17215;DHT22;8723;51.502;6.918;2023-06-26T00:55:37;21.90;1.00
17215;DHT22;8723;51.502;6.918;2023-06-26T00:58:04;21.90;1.00
17215;DHT22;8723;51.502;6.918;2023-06-26T01:00:31;21.80;1.00
17215;DHT22;8723;51.502;6.918;2023-06-26T01:02:58;21.80;1.00
17215;DHT22;8723;51.502;6.918;2023-06-26T01:05:26;21.80;1.00
17215;DHT22;8723;51.502;6.918;2023-06-26T01:07:54;21.80;1.00
17215;DHT22;8723;51.502;6.918;2023-06-26T01:10:22;21.70;1.00
17215;DHT22;8723;51.502;6.918;2023-06-26T01:12:53;21.70;1.00
17215;DHT22;8723;51.502;6.918;2023-06-26T01:15:20;21.70;1.00
17215;DHT22;8723;51.502;6.918;2023-06-26T01:17:47;21.60;1.00
17215;DHT22;8723;51.502;6.918;2023-06-26T01:20:14;21.70;1.00
17215;DHT22;8723;51.502;6.918;2023-06-26T01:22:47;21.60;1.00
17215;DHT22;8723;51.502;6.918;2023-06-26T01:25:21;21.60;1.00
17215;DHT22;8723;51.502;6.918;2023-06-26T01:27:53;21.60;1.00
17215;DHT22;8723;51.502;6.918;2023-06-26T01:30:21;21.50;1.00
17215;DHT22;8723;51.502;6.918;2023-06-26T01:32:48;21.60;1.00
17215;DHT22;8723;51.502;6.918;2023-06-26T01:35:17;21.50;1.00
17215;DHT22;8723;51.502;6.918;2023-06-26T01:37:44;21.50;1.00
17215;DHT22;8723;51.502;6.918;2023-06-26T01:40:11;21.50;1.00
17215;DHT22;8723;51.502;6.918;2023-06-26T01:42:40;21.40;1.00
17215;DHT22;8723;51.502;6.918;2023-06-26T01:45:14;21.50;1.00
17215;DHT22;8723;51.502;6.918;2023-06-26T01:47:50;21.40;1.00
17215;DHT22;8723;51.502;6.918;2023-06-26T01:50:24;21.30;1.00
17215;DHT22;8723;51.502;6.918;2023-06-26T01:53:02;21.30;1.00
17215;DHT22;8723;51.502;6.918;2023-06-26T01:55:34;21.30;1.00
17215;DHT22;8723;51.502;6.918;2023-06-26T01:58:07;21.30;1.00
17215;DHT22;8723;51.502;6.918;2023-06-26T02:00:40;21.30;1.00
17215;DHT22;8723;51.502;6.918;2023-06-26T02:03:11;21.20;1.00
17215;DHT22;8723;51.502;6.918;2023-06-26T02:05:40;21.20;1.00
17215;DHT22;8723;51.502;6.918;2023-06-26T02:08:09;21.20;1.00
17215;DHT22;8723;51.502;6.918;2023-06-26T02:10:37;21.20;1.00
17215;DHT22;8723;51.502;6.918;2023-06-26T02:13:03;21.20;1.00
17215;DHT22;8723;51.502;6.918;2023-06-26T02:15:30;21.20;1.00
17215;DHT22;8723;51.502;6.918;2023-06-26T02:17:58;21.20;1.00
17215;DHT22;8723;51.502;6.918;2023-06-26T02:20:26;21.10;1.00
17215;DHT22;8723;51.502;6.918;2023-06-26T02:22:56;21.10;1.00
17215;DHT22;8723;51.502;6.918;2023-06-26T02:25:25;21.10;1.00
17215;DHT22;8723;51.502;6.918;2023-06-26T02:27:55;21.00;1.00
17215;DHT22;8723;51.502;6.918;2023-06-26T02:30:23;21.10;1.00
17215;DHT22;8723;51.502;6.918;2023-06-26T02:32:51;21.10;1.00
17215;DHT22;8723;51.502;6.918;2023-06-26T02:35:21;21.10;1.00
17215;DHT22;8723;51.502;6.918;2023-06-26T02:37:49;21.10;1.00
17215;DHT22;8723;51.502;6.918;2023-06-26T02:40:19;21.10;1.00
17215;DHT22;8723;51.502;6.918;2023-06-26T02:42:47;21.20;1.00
17215;DHT22;8723;51.502;6.918;2023-06-26T02:45:14;21.20;1.00
17215;DHT22;8723;51.502;6.918;2023-06-26T02:47:41;21.20;1.00
17215;DHT22;8723;51.502;6.918;2023-06-26T02:50:08;21.20;1.00
17215;DHT22;8723;51.502;6.918;2023-06-26T02:52:37;21.20;1.00
17215;DHT22;8723;51.502;6.918;2023-06-26T02:55:05;21.30;1.00
17215;DHT22;8723;51.502;6.918;2023-06-26T02:57:32;21.20;1.00
17215;DHT22;8723;51.502;6.918;2023-06-26T02:59:58;21.30;1.00
17215;DHT22;8723;51.502;6.918;2023-06-26T03:02:27;21.30;1.00
17215;DHT22;8723;51.502;6.918;2023-06-26T03:04:55;21.30;1.00
17215;DHT22;8723;51.502;6.918;2023-06-26T03:07:25;21.40;1.00
17215;DHT22;8723;51.502;6.918;2023-06-26T03:09:55;21.40;1.00
17215;DHT22;8723;51.502;6.918;2023-06-26T03:12:25;21.40;1.00
17215;DHT22;8723;51.502;6.918;2023-06-26T03:14:53;21.50;1.00
17215;DHT22;8723;51.502;6.918;2023-06-26T03:17:20;21.40;1.00
17215;DHT22;8723;51.502;6.918;2023-06-26T03:19:46;21.50;1.00
17215;DHT22;8723;51.502;6.918;2023-06-26T03:22:13;21.50;1.00
17215;DHT22;8723;51.502;6.918;2023-06-26T03:24:40;21.50;1.00
17215;DHT22;8723;51.502;6.918;2023-06-26T03:27:08;21.50;1.00
17215;DHT22;8723;51.502;6.918;2023-06-26T03:29:36;21.50;1.00
17215;DHT22;8723;51.502;6.918;2023-06-26T03:32:03;21.50;1.00
17215;DHT22;8723;51.502;6.918;2023-06-26T03:34:30;21.60;1.00
17215;DHT22;8723;51.502;6.918;2023-06-26T03:36:56;21.60;1.00
17215;DHT22;8723;51.502;6.918;2023-06-26T03:39:23;21.60;1.00
17215;DHT22;8723;51.502;6.918;2023-06-26T03:41:50;21.60;1.00
17215;DHT22;8723;51.502;6.918;2023-06-26T03:44:20;21.60;1.00
17215;DHT22;8723;51.502;6.918;2023-06-26T03:46:46;21.60;1.00
17215;DHT22;8723;51.502;6.918;2023-06-26T03:49:13;21.70;1.00
17215;DHT22;8723;51.502;6.918;2023-06-26T03:51:40;21.70;1.00
17215;DHT22;8723;51.502;6.918;2023-06-26T03:54:07;21.70;1.00
17215;DHT22;8723;51.502;6.918;2023-06-26T03:56:34;21.70;1.00
17215;DHT22;8723;51.502;6.918;2023-06-26T03:59:00;21.70;1.00
17215;DHT22;8723;51.502;6.918;2023-06-26T04:01:29;21.70;1.00
17215;DHT22;8723;51.502;6.918;2023-06-26T04:03:55;21.60;1.00
17215;DHT22;8723;51.502;6.918;2023-06-26T04:06:22;21.70;1.00
17215;DHT22;8723;51.502;6.918;2023-06-26T04:08:49;21.60;1.00
17215;DHT22;8723;51.502;6.918;2023-06-26T04:11:16;21.60;1.00
17215;DHT22;8723;51.502;6.918;2023-06-26T04:13:42;21.70;1.00
17215;DHT22;8723;51.502;6.918;2023-06-26T04:16:09;21.60;1.00
17215;DHT22;8723;51.502;6.918;2023-06-26T04:18:38;21.70;1.00
17215;DHT22;8723;51.502;6.918;2023-06-26T04:21:07;21.70;1.00
17215;DHT22;8723;51.502;6.918;2023-06-26T04:23:34;21.70;1.00
17215;DHT22;8723;51.502;6.918;2023-06-26T04:26:02;21.70;1.00
17215;DHT22;8723;51.502;6.918;2023-06-26T04:28:30;21.70;1.00
17215;DHT22;8723;51.502;6.918;2023-06-26T04:30:57;21.70;1.00
17215;DHT22;8723;51.502;6.918;2023-06-26T04:33:24;21.70;1.00
17215;DHT22;8723;51.502;6.918;2023-06-26T04:35:52;21.70;1.00
17215;DHT22;8723;51.502;6.918;2023-06-26T04:38:19;21.70;1.00
17215;DHT22;8723;51.502;6.918;2023-06-26T04:40:47;21.70;1.00
17215;DHT22;8723;51.502;6.918;2023-06-26T04:43:14;21.70;1.00
17215;DHT22;8723;51.502;6.918;2023-06-26T04:45:41;21.70;1.00
17215;DHT22;8723;51.502;6.918;2023-06-26T04:48:07;21.70;1.00
17215;DHT22;8723;51.502;6.918;2023-06-26T04:50:34;21.70;1.00
17215;DHT22;8723;51.502;6.918;2023-06-26T04:53:03;21.70;1.00
17215;DHT22;8723;51.502;6.918;2023-06-26T04:55:29;21.70;1.00
17215;DHT22;8723;51.502;6.918;2023-06-26T04:57:56;21.70;1.00
17215;DHT22;8723;51.502;6.918;2023-06-26T05:00:23;21.70;1.00
17215;DHT22;8723;51.502;6.918;2023-06-26T05:02:50;21.80;1.00
17215;DHT22;8723;51.502;6.918;2023-06-26T05:05:24;21.80;1.00
17215;DHT22;8723;51.502;6.918;2023-06-26T05:07:53;21.80;1.00
17215;DHT22;8723;51.502;6.918;2023-06-26T05:10:21;21.80;1.00
17215;DHT22;8723;51.502;6.918;2023-06-26T05:12:48;21.80;1.00
17215;DHT22;8723;51.502;6.918;2023-06-26T05:15:15;21.80;1.00
17215;DHT22;8723;51.502;6.918;2023-06-26T05:17:42;21.80;1.00
17215;DHT22;8723;51.502;6.918;2023-06-26T05:20:11;21.90;1.00
17215;DHT22;8723;51.502;6.918;2023-06-26T05:22:38;22.00;1.00
17215;DHT22;8723;51.502;6.918;2023-06-26T05:25:08;22.00;1.00
17215;DHT22;8723;51.502;6.918;2023-06-26T05:27:37;22.10;1.00
17215;DHT22;8723;51.502;6.918;2023-06-26T05:30:05;22.10;1.00
17215;DHT22;8723;51.502;6.918;2023-06-26T05:32:34;22.10;1.00
17215;DHT22;8723;51.502;6.918;2023-06-26T05:35:02;22.10;1.00
17215;DHT22;8723;51.502;6.918;2023-06-26T05:37:31;22.10;1.00
17215;DHT22;8723;51.502;6.918;2023-06-26T05:39:58;22.10;1.00
17215;DHT22;8723;51.502;6.918;2023-06-26T05:42:26;22.00;1.00
17215;DHT22;8723;51.502;6.918;2023-06-26T05:44:54;22.00;1.00
17215;DHT22;8723;51.502;6.918;2023-06-26T05:47:21;22.00;1.00
17215;DHT22;8723;51.502;6.918;2023-06-26T05:49:48;22.00;1.00
17215;DHT22;8723;51.502;6.918;2023-06-26T05:52:15;22.10;1.00
17215;DHT22;8723;51.502;6.918;2023-06-26T05:54:42;22.20;1.00
17215;DHT22;8723;51.502;6.918;2023-06-26T05:57:10;22.20;1.00
17215;DHT22;8723;51.502;6.918;2023-06-26T05:59:40;22.30;1.00
17215;DHT22;8723;51.502;6.918;2023-06-26T06:02:08;22.40;1.00
17215;DHT22;8723;51.502;6.918;2023-06-26T06:04:35;22.40;1.00
17215;DHT22;8723;51.502;6.918;2023-06-26T06:07:03;22.40;1.00
17215;DHT22;8723;51.502;6.918;2023-06-26T06:09:30;22.40;1.00
17215;DHT22;8723;51.502;6.918;2023-06-26T06:11:58;22.40;1.00
17215;DHT22;8723;51.502;6.918;2023-06-26T06:14:25;22.30;1.00
17215;DHT22;8723;51.502;6.918;2023-06-26T06:16:51;22.20;1.00
17215;DHT22;8723;51.502;6.918;2023-06-26T06:19:19;22.30;1.00
17215;DHT22;8723;51.502;6.918;2023-06-26T06:21:46;22.40;1.00
17215;DHT22;8723;51.502;6.918;2023-06-26T06:24:13;22.40;1.00
17215;DHT22;8723;51.502;6.918;2023-06-26T06:26:40;22.40;1.00
17215;DHT22;8723;51.502;6.918;2023-06-26T06:29:07;22.40;1.00
17215;DHT22;8723;51.502;6.918;2023-06-26T06:31:33;22.30;1.00
17215;DHT22;8723;51.502;6.918;2023-06-26T06:34:00;22.30;1.00
17215;DHT22;8723;51.502;6.918;2023-06-26T06:36:29;22.20;1.00
17215;DHT22;8723;51.502;6.918;2023-06-26T06:38:56;22.20;1.00
17215;DHT22;8723;51.502;6.918;2023-06-26T06:41:23;22.20;1.00
17215;DHT22;8723;51.502;6.918;2023-06-26T06:43:50;22.20;1.00
17215;DHT22;8723;51.502;6.918;2023-06-26T06:46:16;22.20;1.00
17215;DHT22;8723;51.502;6.918;2023-06-26T06:48:43;22.20;1.00
17215;DHT22;8723;51.502;6.918;2023-06-26T06:51:12;22.30;1.00
17215;DHT22;8723;51.502;6.918;2023-06-26T06:53:40;22.30;1.00
17215;DHT22;8723;51.502;6.918;2023-06-26T06:56:06;22.40;1.00
17215;DHT22;8723;51.502;6.918;2023-06-26T06:58:33;22.60;1.00
17215;DHT22;8723;51.502;6.918;2023-06-26T07:01:01;22.80;1.00
17215;DHT22;8723;51.502;6.918;2023-06-26T07:03:29;22.80;1.00
17215;DHT22;8723;51.502;6.918;2023-06-26T07:05:56;22.90;1.00
17215;DHT22;8723;51.502;6.918;2023-06-26T07:08:23;22.90;1.00
17215;DHT22;8723;51.502;6.918;2023-06-26T07:10:51;23.00;1.00
17215;DHT22;8723;51.502;6.918;2023-06-26T07:13:18;23.20;1.00
17215;DHT22;8723;51.502;6.918;2023-06-26T07:15:45;23.20;1.00
17215;DHT22;8723;51.502;6.918;2023-06-26T07:18:13;23.30;1.00
17215;DHT22;8723;51.502;6.918;2023-06-26T07:20:40;23.40;1.00
17215;DHT22;8723;51.502;6.918;2023-06-26T07:23:08;23.40;1.00
17215;DHT22;8723;51.502;6.918;2023-06-26T07:25:35;23.30;1.00
17215;DHT22;8723;51.502;6.918;2023-06-26T07:28:03;23.30;1.00
17215;DHT22;8723;51.502;6.918;2023-06-26T07:30:30;23.30;1.00
17215;DHT22;8723;51.502;6.918;2023-06-26T07:32:56;23.20;1.00
17215;DHT22;8723;51.502;6.918;2023-06-26T07:35:23;23.20;1.00
17215;DHT22;8723;51.502;6.918;2023-06-26T07:37:52;23.20;1.00
17215;DHT22;8723;51.502;6.918;2023-06-26T07:40:19;23.20;1.00
17215;DHT22;8723;51.502;6.918;2023-06-26T07:42:46;23.30;1.00
17215;DHT22;8723;51.502;6.918;2023-06-26T07:45:14;23.30;1.00
17215;DHT22;8723;51.502;6.918;2023-06-26T07:47:41;23.30;1.00
17215;DHT22;8723;51.502;6.918;2023-06-26T07:50:08;23.40;1.00
17215;DHT22;8723;51.502;6.918;2023-06-26T07:52:36;23.50;1.00
17215;DHT22;8723;51.502;6.918;2023-06-26T07:55:03;23.50;1.00
17215;DHT22;8723;51.502;6.918;2023-06-26T07:57:30;23.60;1.00
17215;DHT22;8723;51.502;6.918;2023-06-26T07:59:57;23.70;1.00
17215;DHT22;8723;51.502;6.918;2023-06-26T08:02:25;23.90;1.00
17215;DHT22;8723;51.502;6.918;2023-06-26T08:04:52;24.00;1.00
17215;DHT22;8723;51.502;6.918;2023-06-26T08:07:19;24.10;1.00
17215;DHT22;8723;51.502;6.918;2023-06-26T08:09:46;24.30;1.00
17215;DHT22;8723;51.502;6.918;2023-06-26T08:12:13;24.30;1.00
17215;DHT22;8723;51.502;6.918;2023-06-26T08:14:40;24.40;1.00
17215;DHT22;8723;51.502;6.918;2023-06-26T08:17:06;24.50;1.00
17215;DHT22;8723;51.502;6.918;2023-06-26T08:19:34;24.50;1.00
17215;DHT22;8723;51.502;6.918;2023-06-26T08:22:01;24.60;1.00
17215;DHT22;8723;51.502;6.918;2023-06-26T08:24:28;24.70;1.00
17215;DHT22;8723;51.502;6.918;2023-06-26T08:26:55;24.80;1.00
17215;DHT22;8723;51.502;6.918;2023-06-26T08:29:22;24.80;1.00
17215;DHT22;8723;51.502;6.918;2023-06-26T08:31:49;24.90;1.00
17215;DHT22;8723;51.502;6.918;2023-06-26T08:34:15;24.90;1.00
17215;DHT22;8723;51.502;6.918;2023-06-26T08:36:43;25.00;1.00
17215;DHT22;8723;51.502;6.918;2023-06-26T08:39:10;25.00;1.00
17215;DHT22;8723;51.502;6.918;2023-06-26T08:41:37;24.90;1.00
17215;DHT22;8723;51.502;6.918;2023-06-26T08:44:04;24.80;1.00
17215;DHT22;8723;51.502;6.918;2023-06-26T08:46:31;24.90;1.00
17215;DHT22;8723;51.502;6.918;2023-06-26T08:49:02;24.90;1.00
17215;DHT22;8723;51.502;6.918;2023-06-26T08:51:33;25.00;1.00
17215;DHT22;8723;51.502;6.918;2023-06-26T08:54:02;24.90;1.00
17215;DHT22;8723;51.502;6.918;2023-06-26T08:56:37;24.90;1.00
17215;DHT22;8723;51.502;6.918;2023-06-26T08:59:06;24.90;1.00
17215;DHT22;8723;51.502;6.918;2023-06-26T09:01:36;24.90;1.00
17215;DHT22;8723;51.502;6.918;2023-06-26T09:04:03;24.90;1.00
17215;DHT22;8723;51.502;6.918;2023-06-26T09:06:30;24.80;1.00
17215;DHT22;8723;51.502;6.918;2023-06-26T09:08:56;24.90;1.00
17215;DHT22;8723;51.502;6.918;2023-06-26T09:11:25;25.00;1.00
17215;DHT22;8723;51.502;6.918;2023-06-26T09:13:52;25.00;1.00
17215;DHT22;8723;51.502;6.918;2023-06-26T09:16:24;25.00;1.00
17215;DHT22;8723;51.502;6.918;2023-06-26T09:18:52;25.20;1.00
17215;DHT22;8723;51.502;6.918;2023-06-26T09:21:19;25.20;1.00
17215;DHT22;8723;51.502;6.918;2023-06-26T09:23:49;25.30;1.00
17215;DHT22;8723;51.502;6.918;2023-06-26T09:26:16;25.30;1.00
17215;DHT22;8723;51.502;6.918;2023-06-26T09:28:44;25.20;1.00
17215;DHT22;8723;51.502;6.918;2023-06-26T09:31:12;25.20;1.00
17215;DHT22;8723;51.502;6.918;2023-06-26T09:33:39;25.30;1.00
17215;DHT22;8723;51.502;6.918;2023-06-26T09:36:08;25.40;1.00
17215;DHT22;8723;51.502;6.918;2023-06-26T09:38:36;25.50;1.00
17215;DHT22;8723;51.502;6.918;2023-06-26T09:41:03;25.60;1.00
17215;DHT22;8723;51.502;6.918;2023-06-26T09:43:30;25.70;1.00
17215;DHT22;8723;51.502;6.918;2023-06-26T09:45:59;25.70;1.00
17215;DHT22;8723;51.502;6.918;2023-06-26T09:48:27;25.90;1.00
17215;DHT22;8723;51.502;6.918;2023-06-26T09:50:55;25.90;1.00
17215;DHT22;8723;51.502;6.918;2023-06-26T09:53:21;26.10;1.00
17215;DHT22;8723;51.502;6.918;2023-06-26T09:55:48;26.00;1.00
17215;DHT22;8723;51.502;6.918;2023-06-26T09:58:15;26.00;1.00
17215;DHT22;8723;51.502;6.918;2023-06-26T10:00:43;25.90;1.00
17215;DHT22;8723;51.502;6.918;2023-06-26T10:03:12;25.90;1.00
17215;DHT22;8723;51.502;6.918;2023-06-26T10:05:40;25.80;1.00
17215;DHT22;8723;51.502;6.918;2023-06-26T10:08:06;25.80;1.00
17215;DHT22;8723;51.502;6.918;2023-06-26T10:10:35;25.70;1.00
17215;DHT22;8723;51.502;6.918;2023-06-26T10:13:09;25.70;1.00
17215;DHT22;8723;51.502;6.918;2023-06-26T10:15:38;25.80;1.00
17215;DHT22;8723;51.502;6.918;2023-06-26T10:18:07;25.90;1.00
17215;DHT22;8723;51.502;6.918;2023-06-26T10:20:35;25.90;1.00
17215;DHT22;8723;51.502;6.918;2023-06-26T10:23:02;26.00;1.00
17215;DHT22;8723;51.502;6.918;2023-06-26T10:25:31;26.10;1.00
17215;DHT22;8723;51.502;6.918;2023-06-26T10:28:00;26.10;1.00
17215;DHT22;8723;51.502;6.918;2023-06-26T10:30:31;26.10;1.00
17215;DHT22;8723;51.502;6.918;2023-06-26T10:33:00;26.30;1.00
17215;DHT22;8723;51.502;6.918;2023-06-26T10:35:27;26.50;1.00
17215;DHT22;8723;51.502;6.918;2023-06-26T10:38:02;26.50;1.00
17215;DHT22;8723;51.502;6.918;2023-06-26T10:40:40;26.70;1.00
17215;DHT22;8723;51.502;6.918;2023-06-26T10:43:07;26.90;1.00
17215;DHT22;8723;51.502;6.918;2023-06-26T10:45:35;27.00;1.00
17215;DHT22;8723;51.502;6.918;2023-06-26T10:48:02;27.00;1.00
17215;DHT22;8723;51.502;6.918;2023-06-26T10:50:32;27.00;1.00
17215;DHT22;8723;51.502;6.918;2023-06-26T10:53:14;26.80;1.00
17215;DHT22;8723;51.502;6.918;2023-06-26T10:55:48;26.70;1.00
17215;DHT22;8723;51.502;6.918;2023-06-26T10:58:29;26.50;1.00
17215;DHT22;8723;51.502;6.918;2023-06-26T11:01:19;26.30;1.00
17215;DHT22;8723;51.502;6.918;2023-06-26T11:03:48;26.30;1.00
17215;DHT22;8723;51.502;6.918;2023-06-26T11:06:18;26.40;1.00
17215;DHT22;8723;51.502;6.918;2023-06-26T11:08:46;26.70;1.00
17215;DHT22;8723;51.502;6.918;2023-06-26T11:11:14;26.70;1.00
17215;DHT22;8723;51.502;6.918;2023-06-26T11:13:41;26.50;1.00
17215;DHT22;8723;51.502;6.918;2023-06-26T11:16:09;26.40;1.00
17215;DHT22;8723;51.502;6.918;2023-06-26T11:18:38;26.30;1.00
17215;DHT22;8723;51.502;6.918;2023-06-26T11:21:06;26.20;1.00
17215;DHT22;8723;51.502;6.918;2023-06-26T11:23:34;26.20;1.00
17215;DHT22;8723;51.502;6.918;2023-06-26T11:26:19;26.30;1.00
17215;DHT22;8723;51.502;6.918;2023-06-26T11:28:48;26.40;1.00
17215;DHT22;8723;51.502;6.918;2023-06-26T11:31:25;26.70;1.00
17215;DHT22;8723;51.502;6.918;2023-06-26T11:33:53;26.80;1.00
17215;DHT22;8723;51.502;6.918;2023-06-26T11:36:20;27.00;1.00
17215;DHT22;8723;51.502;6.918;2023-06-26T11:38:53;27.00;1.00
17215;DHT22;8723;51.502;6.918;2023-06-26T11:41:22;26.80;1.00
17215;DHT22;8723;51.502;6.918;2023-06-26T11:43:49;27.00;1.00
17215;DHT22;8723;51.502;6.918;2023-06-26T11:46:17;27.10;1.00
17215;DHT22;8723;51.502;6.918;2023-06-26T11:48:44;27.10;1.00
17215;DHT22;8723;51.502;6.918;2023-06-26T11:51:12;27.30;1.00
17215;DHT22;8723;51.502;6.918;2023-06-26T11:53:40;27.20;1.00
17215;DHT22;8723;51.502;6.918;2023-06-26T11:56:08;27.10;1.00
17215;DHT22;8723;51.502;6.918;2023-06-26T11:58:37;27.10;1.00
17215;DHT22;8723;51.502;6.918;2023-06-26T12:01:19;27.30;1.00
17215;DHT22;8723;51.502;6.918;2023-06-26T12:03:46;27.40;1.00
17215;DHT22;8723;51.502;6.918;2023-06-26T12:06:14;27.20;1.00
17215;DHT22;8723;51.502;6.918;2023-06-26T12:08:41;27.00;1.00
17215;DHT22;8723;51.502;6.918;2023-06-26T12:11:08;27.20;1.00
17215;DHT22;8723;51.502;6.918;2023-06-26T12:13:37;27.40;1.00
17215;DHT22;8723;51.502;6.918;2023-06-26T12:16:04;27.70;1.00
17215;DHT22;8723;51.502;6.918;2023-06-26T12:18:34;27.90;1.00
17215;DHT22;8723;51.502;6.918;2023-06-26T12:21:01;28.10;1.00
17215;DHT22;8723;51.502;6.918;2023-06-26T12:23:32;28.10;1.00
17215;DHT22;8723;51.502;6.918;2023-06-26T12:26:16;28.00;1.00
17215;DHT22;8723;51.502;6.918;2023-06-26T12:28:46;28.20;1.00
17215;DHT22;8723;51.502;6.918;2023-06-26T12:31:14;28.10;1.00
17215;DHT22;8723;51.502;6.918;2023-06-26T12:33:42;28.20;1.00
17215;DHT22;8723;51.502;6.918;2023-06-26T12:36:11;28.30;1.00
17215;DHT22;8723;51.502;6.918;2023-06-26T12:38:37;28.20;1.00
17215;DHT22;8723;51.502;6.918;2023-06-26T12:41:04;28.10;1.00
17215;DHT22;8723;51.502;6.918;2023-06-26T12:43:31;28.10;1.00
17215;DHT22;8723;51.502;6.918;2023-06-26T12:46:00;28.10;1.00
17215;DHT22;8723;51.502;6.918;2023-06-26T12:48:37;28.10;1.00
17215;DHT22;8723;51.502;6.918;2023-06-26T12:51:11;27.90;1.00
17215;DHT22;8723;51.502;6.918;2023-06-26T12:53:38;27.70;1.00
17215;DHT22;8723;51.502;6.918;2023-06-26T12:56:06;27.80;1.00
17215;DHT22;8723;51.502;6.918;2023-06-26T12:58:33;27.70;1.00
17215;DHT22;8723;51.502;6.918;2023-06-26T13:01:03;27.70;1.00
17215;DHT22;8723;51.502;6.918;2023-06-26T13:03:31;27.50;1.00
17215;DHT22;8723;51.502;6.918;2023-06-26T13:05:58;27.70;1.00
17215;DHT22;8723;51.502;6.918;2023-06-26T13:08:24;27.80;1.00
17215;DHT22;8723;51.502;6.918;2023-06-26T13:10:51;28.00;1.00
17215;DHT22;8723;51.502;6.918;2023-06-26T13:13:18;28.00;1.00
17215;DHT22;8723;51.502;6.918;2023-06-26T13:15:45;28.10;1.00
17215;DHT22;8723;51.502;6.918;2023-06-26T13:18:13;28.20;1.00
17215;DHT22;8723;51.502;6.918;2023-06-26T13:20:40;28.00;1.00
17215;DHT22;8723;51.502;6.918;2023-06-26T13:23:07;27.90;1.00
17215;DHT22;8723;51.502;6.918;2023-06-26T13:25:33;28.20;1.00
17215;DHT22;8723;51.502;6.918;2023-06-26T13:28:00;28.10;1.00
17215;DHT22;8723;51.502;6.918;2023-06-26T13:30:27;28.00;1.00
17215;DHT22;8723;51.502;6.918;2023-06-26T13:32:55;28.40;1.00
17215;DHT22;8723;51.502;6.918;2023-06-26T13:35:23;28.60;1.00
17215;DHT22;8723;51.502;6.918;2023-06-26T13:37:50;28.60;1.00
17215;DHT22;8723;51.502;6.918;2023-06-26T13:40:16;28.50;1.00
17215;DHT22;8723;51.502;6.918;2023-06-26T13:42:43;28.50;1.00
17215;DHT22;8723;51.502;6.918;2023-06-26T13:45:11;28.10;1.00
17215;DHT22;8723;51.502;6.918;2023-06-26T13:47:37;27.80;1.00
17215;DHT22;8723;51.502;6.918;2023-06-26T13:50:07;28.30;1.00
17215;DHT22;8723;51.502;6.918;2023-06-26T13:52:35;29.00;1.00
17215;DHT22;8723;51.502;6.918;2023-06-26T13:55:03;29.80;1.00
17215;DHT22;8723;51.502;6.918;2023-06-26T13:57:30;30.50;1.00
17215;DHT22;8723;51.502;6.918;2023-06-26T13:59:57;30.80;1.00
17215;DHT22;8723;51.502;6.918;2023-06-26T14:02:24;30.60;1.00
17215;DHT22;8723;51.502;6.918;2023-06-26T14:04:52;30.40;1.00
17215;DHT22;8723;51.502;6.918;2023-06-26T14:07:18;30.10;1.00
17215;DHT22;8723;51.502;6.918;2023-06-26T14:09:46;29.80;1.00
17215;DHT22;8723;51.502;6.918;2023-06-26T14:12:13;29.60;1.00
17215;DHT22;8723;51.502;6.918;2023-06-26T14:14:40;29.30;1.00
17215;DHT22;8723;51.502;6.918;2023-06-26T14:17:07;28.90;1.00
17215;DHT22;8723;51.502;6.918;2023-06-26T14:19:36;28.40;1.00
17215;DHT22;8723;51.502;6.918;2023-06-26T14:22:03;28.00;1.00
17215;DHT22;8723;51.502;6.918;2023-06-26T14:24:30;27.80;1.00
17215;DHT22;8723;51.502;6.918;2023-06-26T14:26:58;27.70;1.00
17215;DHT22;8723;51.502;6.918;2023-06-26T14:29:25;27.60;1.00
17215;DHT22;8723;51.502;6.918;2023-06-26T14:31:51;27.60;1.00
17215;DHT22;8723;51.502;6.918;2023-06-26T14:34:18;27.70;1.00
17215;DHT22;8723;51.502;6.918;2023-06-26T14:36:45;27.70;1.00
17215;DHT22;8723;51.502;6.918;2023-06-26T14:39:12;27.60;1.00
17215;DHT22;8723;51.502;6.918;2023-06-26T14:41:39;27.50;1.00
17215;DHT22;8723;51.502;6.918;2023-06-26T14:44:07;27.60;1.00
17215;DHT22;8723;51.502;6.918;2023-06-26T14:46:35;27.70;1.00
17215;DHT22;8723;51.502;6.918;2023-06-26T14:49:02;27.80;1.00
17215;DHT22;8723;51.502;6.918;2023-06-26T14:51:29;27.90;1.00
17215;DHT22;8723;51.502;6.918;2023-06-26T14:53:56;27.90;1.00
17215;DHT22;8723;51.502;6.918;2023-06-26T14:56:23;27.80;1.00
17215;DHT22;8723;51.502;6.918;2023-06-26T14:58:49;27.70;1.00
17215;DHT22;8723;51.502;6.918;2023-06-26T15:01:19;27.60;1.00
17215;DHT22;8723;51.502;6.918;2023-06-26T15:03:46;27.50;1.00
17215;DHT22;8723;51.502;6.918;2023-06-26T15:06:13;27.50;1.00
17215;DHT22;8723;51.502;6.918;2023-06-26T15:08:40;27.50;1.00
17215;DHT22;8723;51.502;6.918;2023-06-26T15:11:07;27.40;1.00
17215;DHT22;8723;51.502;6.918;2023-06-26T15:13:34;27.30;1.00
17215;DHT22;8723;51.502;6.918;2023-06-26T15:16:00;27.10;1.00
17215;DHT22;8723;51.502;6.918;2023-06-26T15:18:29;27.00;1.00
17215;DHT22;8723;51.502;6.918;2023-06-26T15:20:56;26.90;1.00
17215;DHT22;8723;51.502;6.918;2023-06-26T15:23:23;26.80;1.00
17215;DHT22;8723;51.502;6.918;2023-06-26T15:25:49;26.70;1.00
17215;DHT22;8723;51.502;6.918;2023-06-26T15:28:16;26.50;1.00
17215;DHT22;8723;51.502;6.918;2023-06-26T15:30:43;26.40;1.00
17215;DHT22;8723;51.502;6.918;2023-06-26T15:33:10;26.50;1.00
17215;DHT22;8723;51.502;6.918;2023-06-26T15:35:38;26.60;1.00
17215;DHT22;8723;51.502;6.918;2023-06-26T15:38:05;26.40;1.00
17215;DHT22;8723;51.502;6.918;2023-06-26T15:40:32;26.30;1.00
17215;DHT22;8723;51.502;6.918;2023-06-26T15:42:58;26.20;1.00
17215;DHT22;8723;51.502;6.918;2023-06-26T15:45:25;26.00;1.00
17215;DHT22;8723;51.502;6.918;2023-06-26T15:47:52;26.00;1.00
17215;DHT22;8723;51.502;6.918;2023-06-26T15:50:19;26.00;1.00
17215;DHT22;8723;51.502;6.918;2023-06-26T15:52:48;26.00;1.00
17215;DHT22;8723;51.502;6.918;2023-06-26T15:55:15;26.00;1.00
17215;DHT22;8723;51.502;6.918;2023-06-26T15:57:42;26.00;1.00
17215;DHT22;8723;51.502;6.918;2023-06-26T16:00:10;26.00;1.00
17215;DHT22;8723;51.502;6.918;2023-06-26T16:02:37;25.70;1.00
17215;DHT22;8723;51.502;6.918;2023-06-26T16:05:05;25.60;1.00
17215;DHT22;8723;51.502;6.918;2023-06-26T16:07:32;25.60;1.00